createdAt,value
2019-06-01T00:01:34.168Z,101044.81
2019-06-01T00:04:00.289Z,101043.17
2019-06-01T00:06:26.229Z,101043.70
2019-06-01T00:08:52.308Z,101047.31
2019-06-01T00:11:18.430Z,101046.52
2019-06-01T00:13:45.529Z,101057.23
2019-06-01T00:16:12.163Z,101054.27
2019-06-01T00:18:38.079Z,101057.22
2019-06-01T00:21:04.029Z,101052.96
2019-06-01T00:23:30.097Z,101060.56
2019-06-01T00:25:56.107Z,101065.56
2019-06-01T00:28:22.052Z,101077.19
2019-06-01T00:30:48.579Z,101071.48
2019-06-01T00:33:14.596Z,101069.84
2019-06-01T00:35:41.334Z,101069.50
2019-06-01T00:38:07.495Z,101069.72
2019-06-01T00:40:33.496Z,101079.09
2019-06-01T00:42:59.637Z,101075.67
2019-06-01T00:45:25.726Z,101089.49
2019-06-01T00:47:52.906Z,101080.41
2019-06-01T00:50:19.197Z,101078.27
2019-06-01T00:52:45.318Z,101086.31
2019-06-01T00:55:11.424Z,101090.06
2019-06-01T00:57:37.584Z,101096.36
2019-06-01T01:00:05.574Z,101095.09
2019-06-01T01:02:31.493Z,101104.47
2019-06-01T01:05:07.302Z,101100.09
2019-06-01T01:07:33.213Z,101106.43
2019-06-01T01:09:59.209Z,101112.80
2019-06-01T01:12:25.468Z,101116.15
2019-06-01T01:14:51.391Z,101103.45
2019-06-01T01:17:17.320Z,101103.59
2019-06-01T01:19:43.323Z,101100.72
2019-06-01T01:22:09.250Z,101097.36
2019-06-01T01:24:35.235Z,101101.80
2019-06-01T01:27:01.392Z,101104.45
2019-06-01T01:29:27.299Z,101102.25
2019-06-01T01:31:53.283Z,101109.77
2019-06-01T01:34:19.528Z,101110.16
2019-06-01T01:36:45.559Z,101101.80
2019-06-01T01:39:11.575Z,101099.53
2019-06-01T01:41:37.639Z,101104.38
2019-06-01T01:44:03.757Z,101107.11
2019-06-01T01:46:29.637Z,101106.23
2019-06-01T01:48:56.139Z,101108.05
2019-06-01T01:51:22.186Z,101114.69
2019-06-01T01:53:48.104Z,101120.01
2019-06-01T01:56:14.410Z,101122.24
2019-06-01T01:58:40.420Z,101125.45
2019-06-01T02:01:21.385Z,101126.36
2019-06-01T02:03:34.343Z,101134.76
2019-06-01T02:06:00.353Z,101134.76
2019-06-01T02:08:26.395Z,101147.16
2019-06-01T02:10:53.308Z,101135.66
2019-06-01T02:13:19.313Z,101138.45
2019-06-01T02:15:45.330Z,101139.78
2019-06-01T02:18:11.672Z,101142.44
2019-06-01T02:20:37.660Z,101143.83
2019-06-01T02:23:04.294Z,101139.00
2019-06-01T02:25:30.516Z,101134.08
2019-06-01T02:27:57.319Z,101139.39
2019-06-01T02:30:23.617Z,101127.38
2019-06-01T02:32:49.924Z,101133.56
2019-06-01T02:35:15.956Z,101133.14
2019-06-01T02:37:41.947Z,101142.80
2019-06-01T02:40:08.538Z,101136.08
2019-06-01T02:42:34.480Z,101143.56
2019-06-01T02:45:01.546Z,101070.16
2019-06-01T02:47:27.900Z,101150.62
2019-06-01T02:49:55.648Z,101152.80
2019-06-01T02:52:21.711Z,101157.14
2019-06-01T02:54:47.739Z,101160.57
2019-06-01T02:57:13.877Z,101168.48
2019-06-01T02:59:39.795Z,101174.59
2019-06-01T03:02:10.628Z,101179.84
2019-06-01T03:04:34.139Z,101184.64
2019-06-01T03:07:03.749Z,101178.88
2019-06-01T03:09:32.079Z,101179.71
2019-06-01T03:12:02.433Z,101175.80
2019-06-01T03:14:32.218Z,101181.46
2019-06-01T03:16:59.785Z,101178.25
2019-06-01T03:19:27.117Z,101179.86
2019-06-01T03:21:56.833Z,101174.94
2019-06-01T03:24:23.623Z,101166.58
2019-06-01T03:26:52.148Z,101158.98
2019-06-01T03:29:19.063Z,101164.62
2019-06-01T03:31:45.428Z,101155.67
2019-06-01T03:34:12.126Z,101154.28
2019-06-01T03:36:39.457Z,101159.45
2019-06-01T03:39:06.151Z,101164.28
2019-06-01T03:41:32.168Z,101126.24
2019-06-01T03:43:58.104Z,101166.28
2019-06-01T03:46:24.122Z,101157.30
2019-06-01T03:48:51.144Z,101154.84
2019-06-01T03:51:17.230Z,101153.38
2019-06-01T03:53:43.359Z,101151.11
2019-06-01T03:56:09.590Z,101155.44
2019-06-01T03:58:35.480Z,101149.18
2019-06-01T04:01:01.463Z,101147.64
2019-06-01T04:03:27.383Z,101152.44
2019-06-01T04:05:53.278Z,101146.10
2019-06-01T04:08:19.350Z,101152.61
2019-06-01T04:10:45.317Z,101160.45
2019-06-01T04:13:11.928Z,101162.51
2019-06-01T04:15:38.031Z,101169.33
2019-06-01T04:18:04.094Z,101163.48
2019-06-01T04:20:29.973Z,101168.13
2019-06-01T04:22:56.138Z,101165.41
2019-06-01T04:25:22.159Z,101172.37
2019-06-01T04:27:48.054Z,101172.16
2019-06-01T04:30:14.349Z,101175.05
2019-06-01T04:32:49.557Z,101176.31
2019-06-01T04:35:09.020Z,101169.93
2019-06-01T04:37:35.282Z,101169.78
2019-06-01T04:40:01.369Z,101170.09
2019-06-01T04:42:27.344Z,101169.95
2019-06-01T04:44:53.354Z,101176.08
2019-06-01T04:47:19.297Z,101186.13
2019-06-01T04:49:45.305Z,101178.06
2019-06-01T04:52:12.247Z,101180.43
2019-06-01T04:54:39.145Z,101171.80
2019-06-01T04:57:05.063Z,101167.12
2019-06-01T04:59:31.227Z,101164.24
2019-06-01T05:01:57.399Z,101163.95
2019-06-01T05:04:23.416Z,101168.59
2019-06-01T05:06:49.466Z,101166.67
2019-06-01T05:09:15.827Z,101165.20
2019-06-01T05:11:41.839Z,101166.76
2019-06-01T05:14:07.950Z,101154.16
2019-06-01T05:16:33.877Z,101157.05
2019-06-01T05:18:59.894Z,101161.77
2019-06-01T05:21:25.994Z,101161.08
2019-06-01T05:23:51.997Z,101160.92
2019-06-01T05:26:17.916Z,101154.48
2019-06-01T05:28:43.926Z,101152.13
2019-06-01T05:31:16.826Z,101156.45
2019-06-01T05:33:37.927Z,101147.36
2019-06-01T05:36:04.311Z,101155.49
2019-06-01T05:38:30.259Z,101160.13
2019-06-01T05:40:56.385Z,101163.05
2019-06-01T05:43:22.457Z,101158.81
2019-06-01T05:45:48.478Z,101155.42
2019-06-01T05:48:20.807Z,101153.00
2019-06-01T05:50:42.615Z,101151.81
2019-06-01T05:53:08.551Z,101144.52
2019-06-01T05:55:34.576Z,101147.33
2019-06-01T05:58:00.560Z,101143.66
2019-06-01T06:00:38.643Z,101146.91
2019-06-01T06:03:04.935Z,101146.59
2019-06-01T06:05:30.831Z,101139.67
2019-06-01T06:07:56.782Z,101147.05
2019-06-01T06:10:22.875Z,101144.59
2019-06-01T06:12:48.896Z,101141.38
2019-06-01T06:15:15.640Z,101147.72
2019-06-01T06:17:41.776Z,101130.54
2019-06-01T06:20:08.067Z,101146.84
2019-06-01T06:22:34.122Z,101149.25
2019-06-01T06:25:00.200Z,101152.55
2019-06-01T06:27:26.110Z,101143.78
2019-06-01T06:29:52.024Z,101143.62
2019-06-01T06:32:19.183Z,101146.98
2019-06-01T06:34:45.197Z,101149.81
2019-06-01T06:37:11.133Z,101148.63
2019-06-01T06:39:37.221Z,101134.56
2019-06-01T06:42:03.952Z,101133.97
2019-06-01T06:44:29.849Z,101137.63
2019-06-01T06:46:55.948Z,101140.36
2019-06-01T06:49:23.203Z,101148.12
2019-06-01T06:51:49.206Z,101135.92
2019-06-01T06:54:16.112Z,101143.30
2019-06-01T06:56:42.237Z,101136.81
2019-06-01T06:59:11.584Z,101136.08
2019-06-01T07:01:36.256Z,101134.77
2019-06-01T07:04:12.268Z,101135.37
2019-06-01T07:06:30.427Z,101130.72
2019-06-01T07:08:56.496Z,101139.89
2019-06-01T07:11:23.405Z,101139.80
2019-06-01T07:13:49.545Z,101134.74
2019-06-01T07:16:15.666Z,101137.14
2019-06-01T07:18:41.575Z,101137.66
2019-06-01T07:21:07.496Z,101133.55
2019-06-01T07:23:33.495Z,101139.09
2019-06-01T07:25:59.449Z,101133.47
2019-06-01T07:28:26.266Z,101126.14
2019-06-01T07:30:52.449Z,101129.31
2019-06-01T07:33:18.477Z,101128.63
2019-06-01T07:35:44.604Z,101129.69
2019-06-01T07:38:10.688Z,101125.02
2019-06-01T07:40:36.602Z,101124.47
2019-06-01T07:43:02.726Z,101120.17
2019-06-01T07:45:30.110Z,101115.29
2019-06-01T07:47:56.652Z,101108.41
2019-06-01T07:50:22.530Z,101112.05
2019-06-01T07:52:48.763Z,101117.43
2019-06-01T07:55:14.789Z,101109.39
2019-06-01T07:57:43.299Z,101109.91
2019-06-01T08:00:09.425Z,101101.00
2019-06-01T08:02:35.468Z,101107.34
2019-06-01T08:05:01.873Z,101106.95
2019-06-01T08:07:29.130Z,101107.30
2019-06-01T08:09:55.214Z,101104.64
2019-06-01T08:12:21.258Z,101099.55
2019-06-01T08:14:47.311Z,101097.75
2019-06-01T08:17:13.467Z,101105.08
2019-06-01T08:19:39.487Z,101101.84
2019-06-01T08:22:05.659Z,101092.77
2019-06-01T08:24:32.449Z,101076.97
2019-06-01T08:26:58.472Z,101093.31
2019-06-01T08:29:24.743Z,101083.17
2019-06-01T08:31:55.635Z,101089.20
2019-06-01T08:34:18.720Z,101090.60
2019-06-01T08:36:44.818Z,101085.71
2019-06-01T08:39:10.773Z,101083.87
2019-06-01T08:41:36.886Z,101092.01
2019-06-01T08:44:03.854Z,101084.91
2019-06-01T08:46:29.869Z,101089.75
2019-06-01T08:48:55.849Z,101087.13
2019-06-01T08:51:21.961Z,101096.81
2019-06-01T08:53:48.158Z,101086.36
2019-06-01T08:56:14.182Z,101091.71
2019-06-01T08:58:40.362Z,101091.61
2019-06-01T09:01:06.411Z,101087.58
2019-06-01T09:03:32.316Z,101084.95
2019-06-01T09:05:58.341Z,101082.36
2019-06-01T09:08:25.553Z,101093.55
2019-06-01T09:10:51.966Z,101086.69
2019-06-01T09:13:18.054Z,101088.58
2019-06-01T09:15:44.086Z,101088.48
2019-06-01T09:18:09.996Z,101085.64
2019-06-01T09:20:38.814Z,101087.50
2019-06-01T09:23:04.120Z,101085.97
2019-06-01T09:25:30.010Z,101101.91
2019-06-01T09:27:56.172Z,101091.77
2019-06-01T09:30:22.266Z,101087.69
2019-06-01T09:32:48.179Z,101090.37
2019-06-01T09:35:14.461Z,101077.44
2019-06-01T09:37:40.494Z,101083.73
2019-06-01T09:40:06.789Z,101073.32
2019-06-01T09:42:33.382Z,101075.64
2019-06-01T09:44:59.694Z,101079.19
2019-06-01T09:47:26.963Z,101081.70
2019-06-01T09:49:53.117Z,101075.77
2019-06-01T09:52:19.083Z,101068.33
2019-06-01T09:54:44.975Z,101078.19
2019-06-01T09:57:11.030Z,101074.18
2019-06-01T09:59:38.191Z,101063.67
2019-06-01T10:02:04.400Z,101061.42
2019-06-01T10:04:30.486Z,101054.78
2019-06-01T10:06:56.403Z,101048.36
2019-06-01T10:09:22.327Z,101052.05
2019-06-01T10:11:48.295Z,101045.45
2019-06-01T10:14:14.224Z,101052.81
2019-06-01T10:16:40.124Z,101051.26
2019-06-01T10:19:06.265Z,101055.66
2019-06-01T10:21:32.393Z,101041.08
2019-06-01T10:23:58.312Z,101039.08
2019-06-01T10:26:24.505Z,101039.42
2019-06-01T10:28:50.497Z,101036.03
2019-06-01T10:31:18.296Z,101042.25
2019-06-01T10:33:44.278Z,101040.31
2019-06-01T10:36:20.672Z,101048.49
2019-06-01T10:38:39.348Z,101048.38
2019-06-01T10:41:05.590Z,101047.91
2019-06-01T10:43:31.651Z,101046.70
2019-06-01T10:45:57.551Z,101055.29
2019-06-01T10:48:23.775Z,101051.66
2019-06-01T10:50:49.704Z,101054.76
2019-06-01T10:53:15.605Z,101053.19
2019-06-01T10:55:42.484Z,101045.52
2019-06-01T10:58:08.552Z,101044.94
2019-06-01T11:00:42.046Z,101048.69
2019-06-01T11:03:02.954Z,101044.77
2019-06-01T11:05:29.131Z,101050.66
2019-06-01T11:07:55.155Z,101047.22
2019-06-01T11:10:21.413Z,101043.93
2019-06-01T11:12:47.463Z,101047.22
2019-06-01T11:15:13.939Z,101031.94
2019-06-01T11:17:41.223Z,101031.81
2019-06-01T11:20:07.734Z,101025.08
2019-06-01T11:22:33.652Z,101027.05
2019-06-01T11:24:59.834Z,101023.14
2019-06-01T11:27:25.852Z,101023.78
2019-06-01T11:29:51.890Z,101014.94
2019-06-01T11:32:17.978Z,101010.65
2019-06-01T11:34:44.510Z,101023.52
2019-06-01T11:37:15.030Z,101009.94
2019-06-01T11:39:38.629Z,101010.66
2019-06-01T11:42:04.654Z,101012.63
2019-06-01T11:44:30.543Z,101000.14
2019-06-01T11:46:56.693Z,101000.62
2019-06-01T11:49:22.670Z,101001.23
2019-06-01T11:51:48.567Z,100988.34
2019-06-01T11:54:14.733Z,100995.34
2019-06-01T11:56:41.344Z,100997.62
2019-06-01T11:59:07.526Z,100986.84
2019-06-01T12:01:33.646Z,100977.08
2019-06-01T12:03:59.609Z,100975.95
2019-06-01T12:06:25.504Z,100960.16
2019-06-01T12:08:51.544Z,100969.09
2019-06-01T12:11:17.444Z,100959.94
2019-06-01T12:13:44.443Z,100958.34
2019-06-01T12:16:10.904Z,100934.78
2019-06-01T12:18:36.983Z,100949.67
2019-06-01T12:21:03.101Z,100957.34
2019-06-01T12:23:29.087Z,100949.06
2019-06-01T12:25:55.028Z,100944.09
2019-06-01T12:28:21.019Z,100951.28
2019-06-01T12:30:47.999Z,100939.66
2019-06-01T12:33:14.060Z,100949.49
2019-06-01T12:35:39.945Z,100934.23
2019-06-01T12:38:07.139Z,100935.02
2019-06-01T12:40:33.335Z,100947.72
2019-06-01T12:42:59.219Z,100942.01
2019-06-01T12:45:25.238Z,100941.30
2019-06-01T12:47:55.460Z,100941.42
2019-06-01T12:50:19.267Z,100934.45
2019-06-01T12:52:46.364Z,100934.76
2019-06-01T12:55:12.700Z,100934.76
2019-06-01T12:57:38.805Z,100937.72
2019-06-01T13:00:05.798Z,100937.73
2019-06-01T13:02:31.841Z,100945.26
2019-06-01T13:04:57.751Z,100942.91
2019-06-01T13:07:23.831Z,100887.33
2019-06-01T13:09:50.611Z,100951.06
2019-06-01T13:12:16.556Z,100944.42
2019-06-01T13:14:43.199Z,100944.17
2019-06-01T13:17:09.369Z,100947.05
2019-06-01T13:19:35.390Z,100942.39
2019-06-01T13:22:01.389Z,100942.03
2019-06-01T13:24:27.311Z,100945.30
2019-06-01T13:26:53.217Z,100944.66
2019-06-01T13:29:19.283Z,100941.55
2019-06-01T13:31:46.146Z,100931.86
2019-06-01T13:34:12.059Z,100945.59
2019-06-01T13:36:38.219Z,100942.35
2019-06-01T13:39:06.273Z,100935.54
2019-06-01T13:41:32.394Z,100948.45
2019-06-01T13:43:58.402Z,100938.47
2019-06-01T13:46:24.577Z,100936.44
2019-06-01T13:48:52.619Z,100934.09
2019-06-01T13:51:18.668Z,100938.48
2019-06-01T13:53:44.729Z,100935.69
2019-06-01T13:56:10.835Z,100934.59
2019-06-01T13:58:37.034Z,100934.45
2019-06-01T14:01:03.269Z,100942.41
2019-06-01T14:03:29.192Z,100927.44
2019-06-01T14:05:55.285Z,100925.30
2019-06-01T14:08:29.044Z,100930.86
2019-06-01T14:10:49.460Z,100925.61
2019-06-01T14:13:15.537Z,100933.75
2019-06-01T14:15:41.584Z,100934.47
2019-06-01T14:18:07.601Z,100934.49
2019-06-01T14:20:33.783Z,100920.59
2019-06-01T14:22:59.826Z,100919.30
2019-06-01T14:25:25.831Z,100903.55
2019-06-01T14:27:52.193Z,100914.47
2019-06-01T14:30:18.515Z,100907.67
2019-06-01T14:32:44.458Z,100907.93
2019-06-01T14:35:10.834Z,100911.27
2019-06-01T14:37:36.786Z,100896.64
2019-06-01T14:40:06.176Z,100899.79
2019-06-01T14:42:32.263Z,100904.48
2019-06-01T14:44:58.251Z,100892.74
2019-06-01T14:47:24.203Z,100889.91
2019-06-01T14:49:51.623Z,100901.50
2019-06-01T14:52:17.752Z,100894.04
2019-06-01T14:54:43.698Z,100889.40
2019-06-01T14:57:09.890Z,100889.50
2019-06-01T14:59:35.866Z,100895.89
2019-06-01T15:02:01.789Z,100885.13
2019-06-01T15:04:28.083Z,100885.54
2019-06-01T15:06:54.408Z,100886.11
2019-06-01T15:09:20.502Z,100886.41
2019-06-01T15:11:46.768Z,100887.45
2019-06-01T15:14:12.782Z,100876.84
2019-06-01T15:16:38.738Z,100879.62
2019-06-01T15:19:04.828Z,100880.86
2019-06-01T15:21:30.831Z,100882.66
2019-06-01T15:23:58.057Z,100877.91
2019-06-01T15:26:24.779Z,100876.84
2019-06-01T15:28:50.952Z,100872.73
2019-06-01T15:31:16.918Z,100870.05
2019-06-01T15:33:42.920Z,100869.02
2019-06-01T15:36:08.857Z,100869.22
2019-06-01T15:38:34.862Z,100865.25
2019-06-01T15:41:02.307Z,100863.98
2019-06-01T15:43:28.362Z,100865.42
2019-06-01T15:45:55.344Z,100871.84
2019-06-01T15:48:21.382Z,100858.47
2019-06-01T15:50:47.403Z,100855.45
2019-06-01T15:53:13.308Z,100846.49
2019-06-01T15:55:39.287Z,100860.26
2019-06-01T15:58:05.431Z,100848.73
2019-06-01T16:00:31.441Z,100844.86
2019-06-01T16:02:57.515Z,100836.73
2019-06-01T16:05:23.531Z,100841.98
2019-06-01T16:07:49.458Z,100831.28
2019-06-01T16:10:15.722Z,100824.20
2019-06-01T16:12:41.808Z,100823.16
2019-06-01T16:15:09.324Z,100820.78
2019-06-01T16:17:35.429Z,100817.34
2019-06-01T16:20:02.314Z,100807.52
2019-06-01T16:22:28.351Z,100807.28
2019-06-01T16:24:54.494Z,100798.69
2019-06-01T16:27:20.496Z,100793.55
2019-06-01T16:29:46.491Z,100791.97
2019-06-01T16:32:12.667Z,100791.48
2019-06-01T16:34:38.678Z,100787.67
2019-06-01T16:37:05.326Z,100784.82
2019-06-01T16:39:31.639Z,100783.68
2019-06-01T16:41:59.706Z,100783.51
2019-06-01T16:44:25.754Z,100781.30
2019-06-01T16:46:51.875Z,100775.69
2019-06-01T16:49:17.886Z,100773.58
2019-06-01T16:51:58.730Z,100775.48
2019-06-01T16:54:25.276Z,100766.42
2019-06-01T16:56:51.378Z,100776.52
2019-06-01T16:59:17.778Z,100770.54
2019-06-01T17:01:43.711Z,100770.42
2019-06-01T17:04:09.703Z,100764.81
2019-06-01T17:06:37.426Z,100760.80
2019-06-01T17:09:07.023Z,100757.08
2019-06-01T17:11:33.055Z,100757.58
2019-06-01T17:13:59.242Z,100763.75
2019-06-01T17:16:25.259Z,100764.25
2019-06-01T17:18:51.273Z,100764.25
2019-06-01T17:21:17.352Z,100766.73
2019-06-01T17:23:43.358Z,100764.80
2019-06-01T17:26:09.379Z,100761.56
2019-06-01T17:28:35.529Z,100760.50
2019-06-01T17:31:02.284Z,100764.72
2019-06-01T17:33:28.631Z,100759.37
2019-06-01T17:35:54.708Z,100759.00
2019-06-01T17:38:20.697Z,100756.22
2019-06-01T17:40:46.612Z,100753.74
2019-06-01T17:43:13.489Z,100765.48
2019-06-01T17:45:39.471Z,100759.74
2019-06-01T17:48:18.077Z,100754.41
2019-06-01T17:50:34.015Z,100757.58
2019-06-01T17:53:00.588Z,100755.73
2019-06-01T17:55:32.624Z,100752.89
2019-06-01T17:57:59.085Z,100755.58
2019-06-01T18:00:25.211Z,100759.67
2019-06-01T18:02:51.237Z,100756.05
2019-06-01T18:05:17.454Z,100749.36
2019-06-01T18:07:43.453Z,100742.23
2019-06-01T18:10:10.171Z,100738.49
2019-06-01T18:12:36.351Z,100737.94
2019-06-01T18:15:06.076Z,100739.64
2019-06-01T18:17:32.284Z,100737.84
2019-06-01T18:19:58.375Z,100739.08
2019-06-01T18:22:24.397Z,100742.11
2019-06-01T18:24:50.401Z,100743.45
2019-06-01T18:27:16.605Z,100746.58
2019-06-01T18:29:48.293Z,100741.24
2019-06-01T18:32:11.595Z,100737.23
2019-06-01T18:34:37.962Z,100738.30
2019-06-01T18:37:05.837Z,100737.16
2019-06-01T18:39:32.251Z,100731.55
2019-06-01T18:41:58.352Z,100736.58
2019-06-01T18:44:24.483Z,100735.50
2019-06-01T18:46:50.420Z,100734.08
2019-06-01T18:49:18.230Z,100736.25
2019-06-01T18:51:44.504Z,100735.01
2019-06-01T18:54:10.828Z,100617.50
2019-06-01T18:56:36.995Z,100731.30
2019-06-01T18:59:05.015Z,100730.41
2019-06-01T19:01:31.007Z,100733.97
2019-06-01T19:03:57.100Z,100724.45
2019-06-01T19:06:23.233Z,100731.22
2019-06-01T19:08:49.346Z,100732.19
2019-06-01T19:11:30.701Z,100725.11
2019-06-01T19:13:43.284Z,100722.72
2019-06-01T19:16:10.083Z,100721.02
2019-06-01T19:18:36.220Z,100732.25
2019-06-01T19:21:02.230Z,100735.11
2019-06-01T19:23:28.136Z,100734.06
2019-06-01T19:25:54.206Z,100739.69
2019-06-01T19:28:20.115Z,100743.97
2019-06-01T19:30:46.251Z,100749.03
2019-06-01T19:33:15.344Z,100749.59
2019-06-01T19:35:40.343Z,100739.56
2019-06-01T19:38:07.000Z,100738.51
2019-06-01T19:40:35.062Z,100740.03
2019-06-01T19:43:01.467Z,100737.55
2019-06-01T19:45:29.536Z,100748.95
2019-06-01T19:47:55.331Z,100747.12
2019-06-01T19:50:21.242Z,100749.95
2019-06-01T19:52:47.183Z,100746.78
2019-06-01T19:55:13.438Z,100743.05
2019-06-01T19:57:39.349Z,100741.99
2019-06-01T20:00:05.877Z,100739.77
2019-06-01T20:02:34.063Z,100740.04
2019-06-01T20:04:59.683Z,100745.41
2019-06-01T20:07:25.638Z,100742.09
2019-06-01T20:09:51.762Z,100748.34
2019-06-01T20:12:20.165Z,100747.78
2019-06-01T20:14:45.485Z,100749.41
2019-06-01T20:17:11.699Z,100743.61
2019-06-01T20:19:37.672Z,100738.73
2019-06-01T20:22:03.829Z,100736.30
2019-06-01T20:24:29.964Z,100735.70
2019-06-01T20:26:55.854Z,100727.38
2019-06-01T20:29:21.871Z,100732.50
2019-06-01T20:31:47.946Z,100728.22
2019-06-01T20:34:14.340Z,100725.56
2019-06-01T20:36:40.369Z,100728.69
2019-06-01T20:39:07.074Z,100722.11
2019-06-01T20:41:33.058Z,100721.16
2019-06-01T20:43:58.985Z,100715.83
2019-06-01T20:46:25.324Z,100722.41
2019-06-01T20:48:51.336Z,100727.27
2019-06-01T20:51:17.381Z,100719.83
2019-06-01T20:53:43.773Z,100719.71
2019-06-01T20:56:09.765Z,100714.53
2019-06-01T20:58:35.818Z,100718.23
2019-06-01T21:01:01.811Z,100714.41
2019-06-01T21:03:27.900Z,100717.38
2019-06-01T21:05:53.865Z,100720.80
2019-06-01T21:08:20.366Z,100714.77
2019-06-01T21:10:46.348Z,100705.71
2019-06-01T21:13:12.374Z,100703.77
2019-06-01T21:15:38.570Z,100715.45
2019-06-01T21:18:04.688Z,100707.55
2019-06-01T21:20:30.810Z,100707.80
2019-06-01T21:22:56.831Z,100709.59
2019-06-01T21:25:22.973Z,100706.02
2019-06-01T21:27:49.117Z,100717.50
2019-06-01T21:30:16.984Z,100712.17
2019-06-01T21:32:43.359Z,100712.50
2019-06-01T21:35:10.376Z,100713.74
2019-06-01T21:37:36.363Z,100716.25
2019-06-01T21:40:07.053Z,100713.88
2019-06-01T21:42:33.055Z,100713.97
2019-06-01T21:44:59.060Z,100714.47
2019-06-01T21:47:25.846Z,100713.55
2019-06-01T21:49:51.900Z,100723.97
2019-06-01T21:52:18.084Z,100713.17
2019-06-01T21:54:44.032Z,100716.91
2019-06-01T21:57:10.035Z,100712.92
2019-06-01T21:59:36.096Z,100715.04
2019-06-01T22:02:02.187Z,100712.08
2019-06-01T22:04:28.101Z,100717.94
2019-06-01T22:06:54.393Z,100720.67
2019-06-01T22:09:21.251Z,100717.31
2019-06-01T22:11:47.216Z,100723.58
2019-06-01T22:14:13.401Z,100722.63
2019-06-01T22:16:39.298Z,100724.75
2019-06-01T22:19:05.226Z,100723.96
2019-06-01T22:21:31.423Z,100719.67
2019-06-01T22:23:57.324Z,100725.45
2019-06-01T22:26:24.022Z,100723.28
2019-06-01T22:28:50.255Z,100723.28
2019-06-01T22:31:16.157Z,100726.41
2019-06-01T22:33:42.092Z,100717.47
2019-06-01T22:36:08.269Z,100720.92
2019-06-01T22:38:34.174Z,100726.24
2019-06-01T22:41:00.181Z,100719.97
2019-06-01T22:43:41.242Z,100726.94
2019-06-01T22:45:54.125Z,100726.88
2019-06-01T22:48:20.469Z,100719.77
2019-06-01T22:50:46.583Z,100724.22
2019-06-01T22:53:12.568Z,100728.52
2019-06-01T22:55:38.487Z,100732.25
2019-06-01T22:58:04.514Z,100732.09
2019-06-01T23:00:31.985Z,100732.02
2019-06-01T23:02:58.058Z,100735.70
2019-06-01T23:05:25.013Z,100734.54
2019-06-01T23:07:51.075Z,100735.48
2019-06-01T23:10:17.077Z,100733.37
2019-06-01T23:12:43.061Z,100732.98
2019-06-01T23:15:09.187Z,100729.92
2019-06-01T23:17:35.258Z,100734.31
2019-06-01T23:20:02.370Z,100739.06
2019-06-01T23:22:28.387Z,100732.42
2019-06-01T23:24:54.407Z,100731.58
2019-06-01T23:27:21.991Z,100726.18
2019-06-01T23:29:47.985Z,100731.95
2019-06-01T23:32:14.023Z,100736.02
2019-06-01T23:34:40.104Z,100739.08
2019-06-01T23:37:05.995Z,100738.07
2019-06-01T23:39:32.992Z,100731.66
2019-06-01T23:41:59.228Z,100731.25
2019-06-01T23:44:29.277Z,100734.23
2019-06-01T23:46:53.252Z,100738.61
2019-06-01T23:49:19.544Z,100736.25
2019-06-01T23:51:45.453Z,100742.81
2019-06-01T23:54:11.383Z,100744.06
2019-06-01T23:56:37.434Z,100746.98
2019-06-01T23:59:03.556Z,100746.98
